createdAt,value
2022-11-09T00:00:04.386Z,4.23
2022-11-09T00:02:30.924Z,4.33
2022-11-09T00:04:57.341Z,5.07
2022-11-09T00:07:23.718Z,4.77
2022-11-09T00:09:50.161Z,4.47
2022-11-09T00:12:16.567Z,4.57
2022-11-09T00:14:43.027Z,4.97
2022-11-09T00:17:09.416Z,5.33
2022-11-09T00:19:35.857Z,4.83
2022-11-09T00:22:02.287Z,5.20
2022-11-09T00:24:28.698Z,4.83
2022-11-09T00:26:55.122Z,4.63
2022-11-09T00:29:21.556Z,5.43
2022-11-09T00:31:49.729Z,5.33
2022-11-09T00:34:16.163Z,4.90
2022-11-09T00:36:42.606Z,4.97
2022-11-09T00:39:09.050Z,5.07
2022-11-09T00:41:35.729Z,5.50
2022-11-09T00:44:02.147Z,5.50
2022-11-09T00:46:28.989Z,5.00
2022-11-09T00:48:56.099Z,6.13
2022-11-09T00:51:22.668Z,5.50
2022-11-09T00:53:53.797Z,5.80
2022-11-09T00:56:21.319Z,5.70
2022-11-09T00:58:48.015Z,5.93
2022-11-09T01:01:16.965Z,5.93
2022-11-09T01:03:44.588Z,6.07
2022-11-09T01:06:19.003Z,5.90
2022-11-09T01:08:46.115Z,5.77
2022-11-09T01:11:14.854Z,6.13
2022-11-09T01:13:41.291Z,6.60
2022-11-09T01:16:12.560Z,6.40
2022-11-09T01:18:39.291Z,6.80
2022-11-09T01:21:06.699Z,6.73
2022-11-09T01:23:33.636Z,7.23
2022-11-09T01:26:01.002Z,7.17
2022-11-09T01:28:27.417Z,6.77
2022-11-09T01:30:55.109Z,8.30
2022-11-09T01:33:22.046Z,7.30
2022-11-09T01:35:48.661Z,7.53
2022-11-09T01:38:15.059Z,7.53
2022-11-09T01:40:41.588Z,7.57
2022-11-09T01:43:15.581Z,8.47
2022-11-09T01:45:43.045Z,8.00
2022-11-09T01:48:12.261Z,8.00
2022-11-09T01:50:48.309Z,8.20
2022-11-09T01:53:19.675Z,8.97
2022-11-09T01:55:48.586Z,9.00
2022-11-09T01:58:19.334Z,8.43
2022-11-09T02:00:48.562Z,8.40
2022-11-09T02:03:18.541Z,9.00
2022-11-09T02:05:45.579Z,8.50
2022-11-09T02:08:13.438Z,8.47
2022-11-09T02:11:00.615Z,8.07
2022-11-09T02:13:28.719Z,8.33
2022-11-09T02:15:55.255Z,8.40
2022-11-09T02:18:22.112Z,8.83
2022-11-09T02:20:49.877Z,8.87
2022-11-09T02:23:16.929Z,8.60
2022-11-09T02:25:46.469Z,8.53
2022-11-09T02:28:13.670Z,8.33
2022-11-09T02:30:40.535Z,8.43
2022-11-09T02:33:06.944Z,8.37
2022-11-09T02:35:33.988Z,8.53
2022-11-09T02:38:00.455Z,8.47
2022-11-09T02:40:30.004Z,8.60
2022-11-09T02:42:57.343Z,8.10
2022-11-09T02:45:23.866Z,8.40
2022-11-09T02:47:50.268Z,8.80
2022-11-09T02:50:16.745Z,7.87
2022-11-09T02:52:43.162Z,8.37
2022-11-09T02:55:10.313Z,8.83
2022-11-09T02:57:38.291Z,8.73
2022-11-09T03:00:06.013Z,8.70
2022-11-09T03:02:34.304Z,8.63
2022-11-09T03:05:01.532Z,8.37
2022-11-09T03:07:28.162Z,8.50
2022-11-09T03:09:54.633Z,8.80
2022-11-09T03:12:29.298Z,8.57
2022-11-09T03:15:00.040Z,8.37
2022-11-09T03:17:26.557Z,8.50
2022-11-09T03:19:53.581Z,8.10
2022-11-09T03:22:20.430Z,8.90
2022-11-09T03:24:47.659Z,8.43
2022-11-09T03:27:14.346Z,8.33
2022-11-09T03:29:41.039Z,8.27
2022-11-09T03:32:07.807Z,8.13
2022-11-09T03:34:35.253Z,8.17
2022-11-09T03:37:02.325Z,7.60
2022-11-09T03:39:29.322Z,8.80
2022-11-09T03:41:56.298Z,8.33
2022-11-09T03:44:22.790Z,8.40
2022-11-09T03:46:49.213Z,8.37
2022-11-09T03:49:15.742Z,8.80
2022-11-09T03:51:42.193Z,8.07
2022-11-09T03:54:08.605Z,8.23
2022-11-09T03:56:35.065Z,8.43
2022-11-09T03:59:01.469Z,8.27
2022-11-09T04:01:27.940Z,8.53
2022-11-09T04:03:54.404Z,8.10
2022-11-09T04:06:20.791Z,7.90
2022-11-09T04:08:51.345Z,8.03
2022-11-09T04:11:18.930Z,8.67
2022-11-09T04:13:45.393Z,8.67
2022-11-09T04:16:12.419Z,8.67
2022-11-09T04:18:38.832Z,8.17
2022-11-09T04:21:05.270Z,8.07
2022-11-09T04:23:31.665Z,8.43
2022-11-09T04:25:59.659Z,8.20
2022-11-09T04:28:26.473Z,8.93
2022-11-09T04:30:52.943Z,8.03
2022-11-09T04:33:20.150Z,8.03
2022-11-09T04:35:46.888Z,8.70
2022-11-09T04:38:14.093Z,8.40
2022-11-09T04:40:40.877Z,8.50
2022-11-09T04:43:08.245Z,8.53
2022-11-09T04:45:34.906Z,8.10
2022-11-09T04:48:02.360Z,9.20
2022-11-09T04:50:29.436Z,8.30
2022-11-09T04:52:56.145Z,8.47
2022-11-09T04:55:22.651Z,8.20
2022-11-09T04:57:49.096Z,8.03
2022-11-09T05:00:15.749Z,8.63
2022-11-09T05:02:42.179Z,7.87
2022-11-09T05:05:08.753Z,8.73
2022-11-09T05:07:35.223Z,11.60
2022-11-09T05:10:01.672Z,10.43
2022-11-09T05:12:28.114Z,9.40
2022-11-09T05:14:54.522Z,10.77
2022-11-09T05:17:20.917Z,10.43
2022-11-09T05:19:48.254Z,8.27
2022-11-09T05:22:34.175Z,8.83
2022-11-09T05:25:00.587Z,9.53
2022-11-09T05:27:27.129Z,9.40
2022-11-09T05:29:53.546Z,8.50
2022-11-09T05:32:19.969Z,8.47
2022-11-09T05:34:46.415Z,8.63
2022-11-09T05:37:13.448Z,8.37
2022-11-09T05:39:39.876Z,7.53
2022-11-09T05:42:06.351Z,8.77
2022-11-09T05:44:32.892Z,9.33
2022-11-09T05:46:59.316Z,8.97
2022-11-09T05:49:25.720Z,7.80
2022-11-09T05:51:52.146Z,7.67
2022-11-09T05:54:18.575Z,8.18
2022-11-09T05:56:45.078Z,7.83
2022-11-09T05:59:11.506Z,7.80
2022-11-09T06:01:37.956Z,7.97
2022-11-09T06:04:04.529Z,7.40
2022-11-09T06:06:31.035Z,7.47
2022-11-09T06:08:57.477Z,7.40
2022-11-09T06:11:24.698Z,8.23
2022-11-09T06:13:51.699Z,7.47
2022-11-09T06:16:18.283Z,7.07
2022-11-09T06:18:44.817Z,7.80
2022-11-09T06:21:11.368Z,7.43
2022-11-09T06:23:37.925Z,6.90
2022-11-09T06:26:09.808Z,7.37
2022-11-09T06:28:37.002Z,8.27
2022-11-09T06:31:04.764Z,7.70
2022-11-09T06:33:32.501Z,31.23
2022-11-09T06:35:58.957Z,16.47
2022-11-09T06:38:28.564Z,18.47
2022-11-09T06:40:56.059Z,11.63
2022-11-09T06:43:23.081Z,8.60
2022-11-09T06:45:50.045Z,7.70
2022-11-09T06:48:16.485Z,8.40
2022-11-09T06:50:42.957Z,7.50
2022-11-09T06:53:11.879Z,7.83
2022-11-09T06:55:38.652Z,7.73
2022-11-09T06:58:06.368Z,7.80
2022-11-09T07:00:32.755Z,8.50
2022-11-09T07:02:59.137Z,7.73
2022-11-09T07:05:25.613Z,7.57
2022-11-09T07:07:52.037Z,7.87
2022-11-09T07:10:18.613Z,8.27
2022-11-09T07:12:45.024Z,7.97
2022-11-09T07:15:11.954Z,7.87
2022-11-09T07:17:39.790Z,8.90
2022-11-09T07:20:07.263Z,7.77
2022-11-09T07:22:39.253Z,8.10
2022-11-09T07:25:07.178Z,7.77
2022-11-09T07:27:33.917Z,8.10
2022-11-09T07:30:00.352Z,7.97
2022-11-09T07:32:46.965Z,8.50
2022-11-09T07:35:13.314Z,8.30
2022-11-09T07:37:39.796Z,8.40
2022-11-09T07:40:06.583Z,8.70
2022-11-09T07:42:33.083Z,8.27
2022-11-09T07:44:59.517Z,8.47
2022-11-09T07:47:26.011Z,9.50
2022-11-09T07:49:52.418Z,9.20
2022-11-09T07:52:18.911Z,8.40
2022-11-09T07:54:50.884Z,8.83
2022-11-09T07:57:18.563Z,9.97
2022-11-09T07:59:45.115Z,9.90
2022-11-09T08:02:12.110Z,9.60
2022-11-09T08:04:39.135Z,10.20
2022-11-09T08:07:05.675Z,10.40
2022-11-09T08:09:32.162Z,10.30
2022-11-09T08:11:58.657Z,9.57
2022-11-09T08:14:25.123Z,10.03
2022-11-09T08:16:52.512Z,10.83
2022-11-09T08:19:18.943Z,10.80
2022-11-09T08:21:45.344Z,10.23
2022-11-09T08:24:11.804Z,9.73
2022-11-09T08:26:38.267Z,10.87
2022-11-09T08:29:04.759Z,10.73
2022-11-09T08:31:31.185Z,9.97
2022-11-09T08:33:57.620Z,10.70
2022-11-09T08:36:26.195Z,9.87
2022-11-09T08:38:52.852Z,10.23
2022-11-09T08:41:19.303Z,9.97
2022-11-09T08:43:45.808Z,9.40
2022-11-09T08:46:12.576Z,9.97
2022-11-09T08:48:39.267Z,10.03
2022-11-09T08:51:05.801Z,11.30
2022-11-09T08:53:32.210Z,10.70
2022-11-09T08:55:58.785Z,10.90
2022-11-09T08:58:25.182Z,10.27
2022-11-09T09:00:51.825Z,11.10
2022-11-09T09:03:18.232Z,11.07
2022-11-09T09:05:44.640Z,10.40
2022-11-09T09:08:12.930Z,10.30
2022-11-09T09:10:40.529Z,9.67
2022-11-09T09:13:07.336Z,10.80
2022-11-09T09:15:33.966Z,9.90
2022-11-09T09:18:01.081Z,10.63
2022-11-09T09:20:27.572Z,10.93
2022-11-09T09:22:54.017Z,10.70
2022-11-09T09:25:20.465Z,10.43
2022-11-09T09:27:46.991Z,10.50
2022-11-09T09:30:14.073Z,9.90
2022-11-09T09:32:40.579Z,10.90
2022-11-09T09:35:07.202Z,10.67
2022-11-09T09:37:33.681Z,10.70
2022-11-09T09:40:00.105Z,10.30
2022-11-09T09:42:36.551Z,9.80
2022-11-09T09:45:11.107Z,10.37
2022-11-09T09:47:37.643Z,10.70
2022-11-09T09:50:06.058Z,13.73
2022-11-09T09:53:04.767Z,11.23
2022-11-09T09:55:38.802Z,11.17
2022-11-09T09:58:12.584Z,10.97
2022-11-09T10:00:39.577Z,10.73
2022-11-09T10:03:06.295Z,12.00
2022-11-09T10:05:41.241Z,12.47
2022-11-09T10:08:10.631Z,11.70
2022-11-09T10:10:40.108Z,11.93
2022-11-09T10:13:06.589Z,12.40
2022-11-09T10:15:56.389Z,11.87
2022-11-09T10:18:22.977Z,12.70
2022-11-09T10:21:05.000Z,12.70
2022-11-09T10:23:37.612Z,12.67
2022-11-09T10:26:08.849Z,12.97
2022-11-09T10:29:01.689Z,14.10
2022-11-09T10:31:29.764Z,12.77
2022-11-09T10:33:59.655Z,13.37
2022-11-09T10:36:32.821Z,13.67
2022-11-09T10:39:00.733Z,14.47
2022-11-09T10:41:49.072Z,14.07
2022-11-09T10:44:33.842Z,13.97
2022-11-09T10:47:19.118Z,13.30
2022-11-09T10:50:06.667Z,12.93
2022-11-09T10:52:51.645Z,13.83
2022-11-09T10:55:37.037Z,13.50
2022-11-09T10:58:32.946Z,15.87
2022-11-09T11:01:19.960Z,16.65
2022-11-09T11:04:23.411Z,15.33
2022-11-09T11:07:20.484Z,14.43
2022-11-09T11:10:24.509Z,14.03
2022-11-09T11:13:09.694Z,14.10
2022-11-09T11:15:54.381Z,13.40
2022-11-09T11:18:43.941Z,14.13
2022-11-09T11:21:29.337Z,14.13
2022-11-09T11:24:14.489Z,14.17
2022-11-09T11:27:00.431Z,13.80
2022-11-09T11:30:08.857Z,14.20
2022-11-09T11:32:54.241Z,15.77
2022-11-09T11:35:51.305Z,14.10
2022-11-09T11:38:36.161Z,16.40
2022-11-09T11:41:24.026Z,13.93
2022-11-09T11:44:23.626Z,12.27
2022-11-09T11:47:10.625Z,12.33
2022-11-09T11:49:58.873Z,11.93
2022-11-09T11:52:52.984Z,11.93
2022-11-09T11:55:39.033Z,12.00
2022-11-09T11:58:30.727Z,11.33
2022-11-09T12:01:34.235Z,11.67
2022-11-09T12:04:18.882Z,11.70
2022-11-09T12:07:04.126Z,11.67
2022-11-09T12:10:12.427Z,13.20
2022-11-09T12:13:05.792Z,10.87
2022-11-09T12:16:09.977Z,10.17
2022-11-09T12:18:57.937Z,10.10
2022-11-09T12:22:01.572Z,9.60
2022-11-09T12:25:05.397Z,11.20
2022-11-09T12:28:02.885Z,20.80
2022-11-09T12:30:53.100Z,12.97
2022-11-09T12:33:46.984Z,11.17
2022-11-09T12:36:40.567Z,9.07
2022-11-09T12:39:35.677Z,9.03
2022-11-09T12:42:23.899Z,9.27
2022-11-09T12:45:09.341Z,9.13
2022-11-09T12:47:57.880Z,8.67
2022-11-09T12:50:43.613Z,9.17
2022-11-09T12:53:32.410Z,9.27
2022-11-09T12:56:20.748Z,9.87
2022-11-09T12:59:24.615Z,9.67
2022-11-09T13:02:19.931Z,9.87
2022-11-09T13:05:06.469Z,10.03
2022-11-09T13:07:52.996Z,9.73
2022-11-09T13:10:39.092Z,9.40
2022-11-09T13:13:25.035Z,9.63
2022-11-09T13:16:32.270Z,10.47
2022-11-09T13:19:35.646Z,16.43
2022-11-09T13:22:20.696Z,18.53
2022-11-09T13:25:25.469Z,14.83
2022-11-09T13:28:28.811Z,14.37
2022-11-09T13:31:13.916Z,13.23
2022-11-09T13:34:19.059Z,10.43
2022-11-09T13:37:22.580Z,10.90
2022-11-09T13:40:26.198Z,8.73
2022-11-09T13:43:11.441Z,11.27
2022-11-09T13:46:00.720Z,10.73
2022-11-09T13:48:46.802Z,11.73
2022-11-09T13:51:46.231Z,8.50
2022-11-09T13:54:31.390Z,8.80
2022-11-09T13:57:16.666Z,9.60
2022-11-09T14:00:02.603Z,10.27
2022-11-09T14:02:55.117Z,8.60
2022-11-09T14:05:41.606Z,9.33
2022-11-09T14:08:40.394Z,10.07
2022-11-09T14:11:46.163Z,8.83
2022-11-09T14:14:49.508Z,8.03
2022-11-09T14:17:42.137Z,6.50
2022-11-09T14:20:39.185Z,6.87
2022-11-09T14:23:24.830Z,9.70
2022-11-09T14:26:15.921Z,8.23
2022-11-09T14:29:10.932Z,7.47
2022-11-09T14:31:55.800Z,7.53
2022-11-09T14:34:40.832Z,6.60
2022-11-09T14:37:25.646Z,6.73
2022-11-09T14:40:21.533Z,7.17
2022-11-09T14:43:19.017Z,7.50
2022-11-09T14:46:04.937Z,7.30
2022-11-09T14:48:54.540Z,7.80
2022-11-09T14:51:40.665Z,7.97
2022-11-09T14:54:27.156Z,7.70
2022-11-09T14:57:14.666Z,7.67
2022-11-09T14:59:59.502Z,7.60
2022-11-09T15:02:44.268Z,7.17
2022-11-09T15:05:34.964Z,7.63
2022-11-09T15:08:21.501Z,7.93
2022-11-09T15:11:06.937Z,8.13
2022-11-09T15:13:52.118Z,8.47
2022-11-09T15:16:38.059Z,8.17
2022-11-09T15:19:38.096Z,7.40
2022-11-09T15:22:41.691Z,7.60
2022-11-09T15:25:26.728Z,9.27
2022-11-09T15:28:11.618Z,9.00
2022-11-09T15:30:59.477Z,7.57
2022-11-09T15:33:46.974Z,8.37
2022-11-09T15:36:34.022Z,8.90
2022-11-09T15:39:19.970Z,7.60
2022-11-09T15:42:04.972Z,7.97
2022-11-09T15:44:57.660Z,7.80
2022-11-09T15:47:49.470Z,9.23
2022-11-09T15:50:34.495Z,8.80
2022-11-09T15:53:19.605Z,8.80
2022-11-09T15:56:05.148Z,10.30
2022-11-09T15:58:52.408Z,9.00
2022-11-09T16:01:37.666Z,11.07
2022-11-09T16:04:22.916Z,10.90
2022-11-09T16:07:09.733Z,9.97
2022-11-09T16:09:54.767Z,10.17
2022-11-09T16:12:43.833Z,9.50
2022-11-09T16:15:31.196Z,8.77
2022-11-09T16:18:22.827Z,8.60
2022-11-09T16:21:11.971Z,7.20
2022-11-09T16:23:58.656Z,8.67
2022-11-09T16:26:45.411Z,8.50
2022-11-09T16:29:30.472Z,8.20
2022-11-09T16:32:15.447Z,9.13
2022-11-09T16:35:25.639Z,8.27
2022-11-09T16:38:06.145Z,8.43
2022-11-09T16:40:51.064Z,7.97
2022-11-09T16:43:36.496Z,7.80
2022-11-09T16:46:23.309Z,7.50
2022-11-09T16:49:08.364Z,8.23
2022-11-09T16:51:53.393Z,7.77
2022-11-09T16:54:38.207Z,8.30
2022-11-09T16:57:23.148Z,7.73
2022-11-09T17:00:08.647Z,10.93
2022-11-09T17:02:53.978Z,8.37
2022-11-09T17:05:39.928Z,8.87
2022-11-09T17:08:25.108Z,9.20
2022-11-09T17:11:11.411Z,8.40
2022-11-09T17:13:56.873Z,8.50
2022-11-09T17:16:42.255Z,8.07
2022-11-09T17:19:31.306Z,9.37
2022-11-09T17:22:16.391Z,8.00
2022-11-09T17:25:01.773Z,9.27
2022-11-09T17:27:46.939Z,8.13
2022-11-09T17:30:32.420Z,8.43
2022-11-09T17:33:17.687Z,8.60
2022-11-09T17:36:04.483Z,8.50
2022-11-09T17:38:49.708Z,7.87
2022-11-09T17:41:38.680Z,9.45
2022-11-09T17:44:38.408Z,9.30
2022-11-09T17:47:23.190Z,8.80
2022-11-09T17:50:08.492Z,8.57
2022-11-09T17:52:53.527Z,8.93
2022-11-09T17:55:38.588Z,7.77
2022-11-09T17:58:24.212Z,8.33
2022-11-09T18:01:10.575Z,7.60
2022-11-09T18:03:55.968Z,8.53
2022-11-09T18:06:40.838Z,7.77
2022-11-09T18:09:42.507Z,8.40
2022-11-09T18:12:27.910Z,8.60
2022-11-09T18:15:13.082Z,7.73
2022-11-09T18:17:58.461Z,7.67
2022-11-09T18:20:43.551Z,7.83
2022-11-09T18:23:28.671Z,8.03
2022-11-09T18:26:14.052Z,8.30
2022-11-09T18:28:58.972Z,8.00
2022-11-09T18:31:43.854Z,7.73
2022-11-09T18:34:28.743Z,7.13
2022-11-09T18:37:13.664Z,8.30
2022-11-09T18:39:58.591Z,8.43
2022-11-09T18:42:43.678Z,9.18
2022-11-09T18:45:29.792Z,8.13
2022-11-09T18:48:15.345Z,8.20
2022-11-09T18:51:00.473Z,7.70
2022-11-09T18:53:46.453Z,7.97
2022-11-09T18:56:31.562Z,9.20
2022-11-09T18:59:16.440Z,9.30
2022-11-09T19:02:01.347Z,8.13
2022-11-09T19:04:46.313Z,8.30
2022-11-09T19:07:31.173Z,8.63
2022-11-09T19:10:16.316Z,7.77
2022-11-09T19:13:01.861Z,8.20
2022-11-09T19:15:47.044Z,8.30
2022-11-09T19:18:32.130Z,8.70
2022-11-09T19:21:23.362Z,8.00
2022-11-09T19:24:11.173Z,8.07
2022-11-09T19:26:56.080Z,8.60
2022-11-09T19:29:40.905Z,8.50
2022-11-09T19:32:25.764Z,8.20
2022-11-09T19:35:10.588Z,8.27
2022-11-09T19:37:56.153Z,8.43
2022-11-09T19:40:41.012Z,8.60
2022-11-09T19:43:26.089Z,8.70
2022-11-09T19:46:11.373Z,8.73
2022-11-09T19:48:56.564Z,8.73
2022-11-09T19:51:41.404Z,8.93
2022-11-09T19:54:26.138Z,8.43
2022-11-09T19:57:10.949Z,8.90
2022-11-09T19:59:56.041Z,8.70
2022-11-09T20:02:41.291Z,8.07
2022-11-09T20:05:26.769Z,8.43
2022-11-09T20:08:11.838Z,9.13
2022-11-09T20:10:56.866Z,9.67
2022-11-09T20:13:41.661Z,9.87
2022-11-09T20:16:27.067Z,9.90
2022-11-09T20:19:12.755Z,9.80
2022-11-09T20:21:58.095Z,9.63
2022-11-09T20:24:43.238Z,9.13
2022-11-09T20:27:32.004Z,9.73
2022-11-09T20:30:17.485Z,9.40
2022-11-09T20:33:02.827Z,10.10
2022-11-09T20:35:54.555Z,9.17
2022-11-09T20:38:39.953Z,9.70
2022-11-09T20:41:25.783Z,9.97
2022-11-09T20:44:11.142Z,9.83
2022-11-09T20:46:56.056Z,9.33
2022-11-09T20:49:41.367Z,10.10
2022-11-09T20:52:26.160Z,9.40
2022-11-09T20:55:11.009Z,10.67
2022-11-09T20:57:56.347Z,10.47
2022-11-09T21:00:41.660Z,10.40
2022-11-09T21:03:26.966Z,9.40
2022-11-09T21:06:12.897Z,10.13
2022-11-09T21:09:00.359Z,9.10
2022-11-09T21:12:04.212Z,12.47
2022-11-09T21:14:49.552Z,10.00
2022-11-09T21:17:34.686Z,10.47
2022-11-09T21:20:19.480Z,10.53
2022-11-09T21:23:13.317Z,9.17
2022-11-09T21:26:17.806Z,9.73
2022-11-09T21:29:21.810Z,9.13
2022-11-09T21:32:08.993Z,9.20
2022-11-09T21:34:54.094Z,9.80
2022-11-09T21:37:39.006Z,9.47
2022-11-09T21:40:24.687Z,8.97
2022-11-09T21:43:10.784Z,9.40
2022-11-09T21:45:56.014Z,9.83
2022-11-09T21:48:40.940Z,10.30
2022-11-09T21:51:25.929Z,9.43
2022-11-09T21:54:11.157Z,9.83
2022-11-09T21:56:56.883Z,10.17
2022-11-09T21:59:42.018Z,9.70
2022-11-09T22:02:26.908Z,9.30
2022-11-09T22:05:11.843Z,9.00
2022-11-09T22:07:57.088Z,7.97
2022-11-09T22:10:42.004Z,8.30
2022-11-09T22:13:46.075Z,9.07
2022-11-09T22:16:32.517Z,9.33
2022-11-09T22:19:36.117Z,8.53
2022-11-09T22:22:21.142Z,8.30
2022-11-09T22:25:06.454Z,8.17
2022-11-09T22:27:51.415Z,8.40
2022-11-09T22:30:36.550Z,8.33
2022-11-09T22:33:26.930Z,8.20
2022-11-09T22:36:12.909Z,8.53
2022-11-09T22:38:58.016Z,7.60
2022-11-09T22:41:42.887Z,7.97
2022-11-09T22:44:27.663Z,7.97
2022-11-09T22:47:13.368Z,8.57
2022-11-09T22:49:58.667Z,7.73
2022-11-09T22:52:43.757Z,7.97
2022-11-09T22:55:28.581Z,7.37
2022-11-09T22:58:13.389Z,7.80
2022-11-09T23:01:06.312Z,7.60
2022-11-09T23:03:52.172Z,7.17
2022-11-09T23:06:37.401Z,6.90
2022-11-09T23:09:22.765Z,7.43
2022-11-09T23:12:07.783Z,7.23
2022-11-09T23:15:04.853Z,7.40
2022-11-09T23:18:10.736Z,6.50
2022-11-09T23:20:58.796Z,6.63
2022-11-09T23:23:44.042Z,6.90
2022-11-09T23:26:29.130Z,6.57
2022-11-09T23:29:14.051Z,6.90
2022-11-09T23:31:59.070Z,7.17
2022-11-09T23:34:43.921Z,7.03
2022-11-09T23:37:28.881Z,7.17
2022-11-09T23:40:13.794Z,7.03
2022-11-09T23:43:02.422Z,6.63
2022-11-09T23:45:47.627Z,7.40
2022-11-09T23:48:32.816Z,7.10
2022-11-09T23:51:18.658Z,6.80
2022-11-09T23:54:03.672Z,6.40
2022-11-09T23:56:48.474Z,6.67
2022-11-09T23:59:33.399Z,6.63
